Time;durP1;ratioP1;P1;durP2;ratioP2;P2;SDS_P1;SDS_P2;PMS_P1;PMS_P2;Temp;Humidity;BMP_temperature;BMP_pressure;BME280_temperature;BME280_humidity;BME280_pressure;Samples;Min_cycle;Max_cycle;Signal;HPM_P1;HPM_P2
2021/01/05 00:01:17;;;;;;;;;;;2.20;99.90;;;;;;5093676;28;19920;-82
2021/01/05 00:03:44;;;;;;;;;;;2.20;99.90;;;;;;5105421;28;19938;-82
2021/01/05 00:06:11;;;;;;;;;;;2.20;99.90;;;;;;5088939;28;19943;-83
2021/01/05 00:08:40;;;;;;;;;;;2.30;99.90;;;;;;5123762;28;19920;-83
2021/01/05 00:11:08;;;;;;;;;;;2.20;99.90;;;;;;5075136;28;20276;-80
2021/01/05 00:13:38;;;;;;;;;;;2.30;99.90;;;;;;5079804;28;20361;-82
2021/01/05 00:16:06;;;;;;;;;;;2.30;99.90;;;;;;5103241;28;19927;-84
2021/01/05 00:18:35;;;;;;;;;;;2.20;99.90;;;;;;5088771;28;19924;-85
2021/01/05 00:21:05;;;;;;;;;;;2.20;99.90;;;;;;5111641;28;19920;-85
2021/01/05 00:23:35;;;;;;;;;;;2.30;99.90;;;;;;5105481;28;19945;-86
2021/01/05 00:26:02;;;;;;;;;;;2.30;99.90;;;;;;5108390;28;19931;-85
2021/01/05 00:28:30;;;;;;;;;;;2.30;99.90;;;;;;5102259;28;19947;-83
2021/01/05 00:30:57;;;;;;;;;;;2.30;99.90;;;;;;5085717;28;19920;-85
2021/01/05 00:33:29;;;;;;;;;;;2.20;99.90;;;;;;5086302;28;19931;-88
2021/01/05 00:36:11;;;;;;;;;;;2.30;99.90;;;;;;5106337;28;19919;-85
2021/01/05 00:38:38;;;;;;;;;;;2.30;99.90;;;;;;5098761;28;19920;-85
2021/01/05 00:41:05;;;;;;;;;;;2.20;99.90;;;;;;5130694;27;19920;-82
2021/01/05 00:43:50;;;;;;;;;;;2.20;99.90;;;;;;5099125;28;19920;-84
2021/01/05 00:46:21;;;;;;;;;;;2.30;99.90;;;;;;5082048;28;20102;-83
2021/01/05 00:48:52;;;;;;;;;;;2.20;99.90;;;;;;5085225;28;19919;-82
2021/01/05 00:51:20;;;;;;;;;;;2.20;99.90;;;;;;5085120;28;19935;-82
2021/01/05 00:53:48;;;;;;;;;;;2.20;99.90;;;;;;5092573;28;19930;-82
2021/01/05 00:56:17;;;;;;;;;;;2.20;99.90;;;;;;5077888;28;19928;-83
2021/01/05 00:58:47;;;;;;;;;;;2.20;99.90;;;;;;5079716;28;19928;-80
2021/01/05 01:01:19;;;;;;;;;;;2.20;99.90;;;;;;5098221;28;19931;-86
2021/01/05 01:03:47;;;;;;;;;;;2.20;99.90;;;;;;5100698;28;19927;-83
2021/01/05 01:06:16;;;;;;;;;;;2.20;99.90;;;;;;5065472;28;20345;-83
2021/01/05 01:08:43;;;;;;;;;;;2.20;99.90;;;;;;5063858;28;19920;-85
2021/01/05 01:11:12;;;;;;;;;;;2.20;99.90;;;;;;5097391;28;19924;-82
2021/01/05 01:13:41;;;;;;;;;;;2.20;99.90;;;;;;5087277;28;19927;-82
2021/01/05 01:16:17;;;;;;;;;;;2.20;99.90;;;;;;5101979;28;19920;-84
2021/01/05 01:18:46;;;;;;;;;;;2.20;99.90;;;;;;5107421;28;20206;-85
2021/01/05 01:21:15;;;;;;;;;;;2.20;99.90;;;;;;5110715;28;19920;-84
2021/01/05 01:23:47;;;;;;;;;;;2.20;99.90;;;;;;5102271;28;19932;-85
2021/01/05 01:26:14;;;;;;;;;;;2.20;99.90;;;;;;5114303;28;19931;-84
2021/01/05 01:28:48;;;;;;;;;;;2.20;99.90;;;;;;5097727;28;19931;-82
2021/01/05 01:31:17;;;;;;;;;;;2.20;99.90;;;;;;5084246;28;20261;-81
2021/01/05 01:33:44;;;;;;;;;;;2.20;99.90;;;;;;5096393;28;20272;-83
2021/01/05 01:36:16;;;;;;;;;;;2.20;99.90;;;;;;5081131;28;19919;-85
2021/01/05 01:38:46;;;;;;;;;;;2.20;99.90;;;;;;5116734;28;19927;-84
2021/01/05 01:41:13;;;;;;;;;;;2.20;99.90;;;;;;5080261;28;19920;-83
2021/01/05 01:46:30;;;;;;;;;;;2.20;99.90;;;;;;5054960;28;19926;-82
2021/01/05 01:48:57;;;;;;;;;;;2.30;99.90;;;;;;5072700;28;19920;-81
2021/01/05 01:51:26;;;;;;;;;;;2.20;99.90;;;;;;5079478;28;19920;-83
2021/01/05 01:54:33;;;;;;;;;;;2.30;99.90;;;;;;5096725;28;19920;-81
2021/01/05 01:57:33;;;;;;;;;;;2.40;99.90;;;;;;5072637;28;19935;-84
2021/01/05 02:00:13;;;;;;;;;;;2.40;99.90;;;;;;5022296;28;19963;-82
2021/01/05 02:02:57;;;;;;;;;;;2.30;99.90;;;;;;5037462;28;19951;-83
2021/01/05 02:05:34;;;;;;;;;;;2.40;99.90;;;;;;5021986;28;20349;-82
2021/01/05 02:08:27;;;;;;;;;;;2.30;99.90;;;;;;5044944;28;19920;-81
2021/01/05 02:10:58;;;;;;;;;;;2.30;99.90;;;;;;5013474;28;19932;-85
2021/01/05 02:13:46;;;;;;;;;;;2.30;99.90;;;;;;5005062;28;19921;-86
2021/01/05 02:16:24;;;;;;;;;;;2.30;99.90;;;;;;5050064;28;19936;-86
2021/01/05 02:18:59;;;;;;;;;;;2.30;99.90;;;;;;5026877;28;19947;-84
2021/01/05 02:21:28;;;;;;;;;;;2.30;99.90;;;;;;5020859;28;19920;-84
2021/01/05 02:24:09;;;;;;;;;;;2.30;99.90;;;;;;5021193;28;19920;-84
2021/01/05 02:26:41;;;;;;;;;;;2.30;99.90;;;;;;5037238;28;19921;-85
2021/01/05 02:29:11;;;;;;;;;;;2.20;99.90;;;;;;5038698;28;19920;-87
2021/01/05 02:31:53;;;;;;;;;;;2.20;99.90;;;;;;5021376;28;19935;-84
2021/01/05 02:34:32;;;;;;;;;;;2.20;99.90;;;;;;5054774;28;19927;-85
2021/01/05 02:37:06;;;;;;;;;;;2.20;99.90;;;;;;5071436;28;19920;-86
2021/01/05 02:40:21;;;;;;;;;;;2.30;99.90;;;;;;5091200;28;19927;-85
2021/01/05 02:43:29;;;;;;;;;;;2.30;99.90;;;;;;5093166;28;19920;-86
2021/01/05 02:46:20;;;;;;;;;;;2.30;99.90;;;;;;5092790;28;19928;-85
2021/01/05 02:49:16;;;;;;;;;;;2.20;99.90;;;;;;5119842;27;19920;-84
2021/01/05 02:52:22;;;;;;;;;;;2.20;99.90;;;;;;5077170;28;19935;-85
2021/01/05 02:55:33;;;;;;;;;;;2.20;99.90;;;;;;5090989;28;19920;-84
2021/01/05 02:58:33;;;;;;;;;;;2.30;99.90;;;;;;5140210;27;19920;-83
2021/01/05 03:01:40;;;;;;;;;;;2.20;99.90;;;;;;5103531;28;19920;-83
2021/01/05 03:04:25;;;;;;;;;;;2.30;99.90;;;;;;5093860;28;19931;-84
2021/01/05 03:07:13;;;;;;;;;;;2.30;99.90;;;;;;5113969;28;19908;-87
2021/01/05 03:10:17;;;;;;;;;;;2.20;99.90;;;;;;5113723;28;19920;-88
2021/01/05 03:13:09;;;;;;;;;;;2.20;99.90;;;;;;5108472;28;19920;-88
2021/01/05 03:16:00;;;;;;;;;;;2.30;99.90;;;;;;5109267;28;20252;-88
2021/01/05 03:18:50;;;;;;;;;;;2.30;99.90;;;;;;5112364;28;19916;-86
2021/01/05 03:21:38;;;;;;;;;;;2.30;99.90;;;;;;5112910;28;19920;-87
2021/01/05 03:24:28;;;;;;;;;;;2.30;99.90;;;;;;5108258;28;19920;-84
2021/01/05 03:27:17;;;;;;;;;;;2.20;99.90;;;;;;5065136;28;19920;-84
2021/01/05 03:30:05;;;;;;;;;;;2.30;99.90;;;;;;5108858;28;19934;-84
2021/01/05 03:32:58;;;;;;;;;;;2.30;99.90;;;;;;5101677;28;19919;-85
2021/01/05 03:35:45;;;;;;;;;;;2.30;99.90;;;;;;5097588;28;19927;-85
2021/01/05 03:38:32;;;;;;;;;;;2.30;99.90;;;;;;5096296;28;19931;-86
2021/01/05 03:41:19;;;;;;;;;;;2.20;99.90;;;;;;5095445;28;19920;-86
2021/01/05 03:44:05;;;;;;;;;;;2.20;99.90;;;;;;5103119;28;19920;-86
2021/01/05 03:46:51;;;;;;;;;;;2.20;99.90;;;;;;5108144;28;19930;-86
2021/01/05 03:49:38;;;;;;;;;;;2.30;99.90;;;;;;5114049;28;19931;-86
2021/01/05 03:52:24;;;;;;;;;;;2.30;99.90;;;;;;5104025;28;19931;-86
2021/01/05 03:55:11;;;;;;;;;;;2.30;99.90;;;;;;5118524;27;19920;-82
2021/01/05 03:58:00;;;;;;;;;;;2.30;99.90;;;;;;5121494;28;19923;-86
2021/01/05 04:00:47;;;;;;;;;;;2.30;99.90;;;;;;5110203;28;19926;-86
2021/01/05 04:03:18;;;;;;;;;;;2.30;99.90;;;;;;5098991;28;19927;-85
2021/01/05 04:05:46;;;;;;;;;;;2.30;99.90;;;;;;5081397;28;19919;-87
2021/01/05 04:08:17;;;;;;;;;;;2.30;99.90;;;;;;5087071;28;19939;-87
2021/01/05 04:10:44;;;;;;;;;;;2.30;99.90;;;;;;5097638;28;20238;-87
2021/01/05 04:13:15;;;;;;;;;;;2.30;99.90;;;;;;5104001;28;19931;-86
2021/01/05 04:15:45;;;;;;;;;;;2.20;99.90;;;;;;5114149;28;19920;-87
2021/01/05 04:18:12;;;;;;;;;;;2.20;99.90;;;;;;5080803;28;19920;-87
2021/01/05 04:20:41;;;;;;;;;;;2.20;99.90;;;;;;5105318;28;19920;-86
2021/01/05 04:23:09;;;;;;;;;;;2.20;99.90;;;;;;5080858;28;19931;-87
2021/01/05 04:25:37;;;;;;;;;;;2.30;99.90;;;;;;5064495;28;19954;-86
2021/01/05 04:28:05;;;;;;;;;;;2.30;99.90;;;;;;5063774;28;19924;-85
2021/01/05 04:30:34;;;;;;;;;;;2.30;99.90;;;;;;5080844;28;19919;-87
2021/01/05 04:33:04;;;;;;;;;;;2.30;99.90;;;;;;5097658;28;19919;-87
2021/01/05 04:35:39;;;;;;;;;;;2.30;99.90;;;;;;5129645;27;19920;-86
2021/01/05 04:38:07;;;;;;;;;;;2.40;99.90;;;;;;5098158;28;19941;-85
2021/01/05 04:40:39;;;;;;;;;;;2.30;99.90;;;;;;5081396;28;19924;-87
2021/01/05 04:43:17;;;;;;;;;;;2.40;99.90;;;;;;5098839;28;19935;-85
2021/01/05 04:45:52;;;;;;;;;;;2.30;99.90;;;;;;5079930;28;19928;-86
2021/01/05 04:48:29;;;;;;;;;;;2.20;99.90;;;;;;5077080;28;19921;-86
2021/01/05 04:50:59;;;;;;;;;;;2.40;99.90;;;;;;5097286;28;19920;-88
2021/01/05 04:53:30;;;;;;;;;;;2.30;99.90;;;;;;5096132;28;19946;-88
2021/01/05 04:56:00;;;;;;;;;;;2.30;99.90;;;;;;5080750;28;19931;-88
2021/01/05 04:58:31;;;;;;;;;;;2.30;99.90;;;;;;5063002;28;19920;-86
2021/01/05 05:01:02;;;;;;;;;;;2.30;99.90;;;;;;5081200;28;19920;-84
2021/01/05 05:03:40;;;;;;;;;;;2.30;99.90;;;;;;5098998;28;19924;-87
2021/01/05 05:06:28;;;;;;;;;;;2.30;99.90;;;;;;5099162;28;19920;-86
2021/01/05 05:09:01;;;;;;;;;;;2.30;99.90;;;;;;5095447;28;20360;-86
2021/01/05 05:11:32;;;;;;;;;;;2.40;99.90;;;;;;5080253;28;19920;-85
2021/01/05 05:14:02;;;;;;;;;;;2.40;99.90;;;;;;5099321;28;20258;-84
2021/01/05 05:16:47;;;;;;;;;;;2.30;99.90;;;;;;5065180;28;20357;-82
2021/01/05 05:19:27;;;;;;;;;;;2.40;99.90;;;;;;5099010;28;20273;-85
2021/01/05 05:21:58;;;;;;;;;;;2.40;99.90;;;;;;5077803;28;19920;-83
2021/01/05 05:24:36;;;;;;;;;;;2.40;99.90;;;;;;5075476;28;19920;-81
2021/01/05 05:27:13;;;;;;;;;;;2.40;99.90;;;;;;5081677;28;19924;-83
2021/01/05 05:29:45;;;;;;;;;;;2.40;99.90;;;;;;5081160;28;19920;-83
2021/01/05 05:32:22;;;;;;;;;;;2.40;99.90;;;;;;5081477;28;19953;-84
2021/01/05 05:34:54;;;;;;;;;;;2.40;99.90;;;;;;5084575;28;19920;-82
2021/01/05 05:37:43;;;;;;;;;;;2.40;99.90;;;;;;5106285;28;19920;-82
2021/01/05 05:40:18;;;;;;;;;;;2.40;99.90;;;;;;5096869;28;20345;-81
2021/01/05 05:43:06;;;;;;;;;;;2.40;99.90;;;;;;5081581;28;19928;-80
2021/01/05 05:45:39;;;;;;;;;;;2.40;99.90;;;;;;5081179;28;19931;-79
2021/01/05 05:48:12;;;;;;;;;;;2.40;99.90;;;;;;5086010;28;19931;-83
2021/01/05 05:50:48;;;;;;;;;;;2.40;99.90;;;;;;5098642;28;20019;-84
2021/01/05 05:53:18;;;;;;;;;;;2.40;99.90;;;;;;5100072;28;19931;-82
2021/01/05 05:55:47;;;;;;;;;;;2.40;99.90;;;;;;5100219;28;19920;-82
2021/01/05 05:58:18;;;;;;;;;;;2.40;99.90;;;;;;5066945;28;19920;-82
2021/01/05 06:00:47;;;;;;;;;;;2.40;99.90;;;;;;5082010;28;19920;-81
2021/01/05 06:03:17;;;;;;;;;;;2.50;99.90;;;;;;5084227;28;19920;-84
2021/01/05 06:05:51;;;;;;;;;;;2.50;99.90;;;;;;5098781;28;19919;-81
2021/01/05 06:08:35;;;;;;;;;;;2.40;99.90;;;;;;5080841;28;19920;-82
2021/01/05 06:11:03;;;;;;;;;;;2.40;99.90;;;;;;5082041;28;19920;-86
2021/01/05 06:13:34;;;;;;;;;;;2.40;99.90;;;;;;5131658;27;19920;-81
2021/01/05 06:16:02;;;;;;;;;;;2.40;99.90;;;;;;5103840;28;19939;-81
2021/01/05 06:18:30;;;;;;;;;;;2.40;99.90;;;;;;5097178;28;19931;-82
2021/01/05 06:20:57;;;;;;;;;;;2.40;99.90;;;;;;5114059;28;20396;-84
2021/01/05 06:23:26;;;;;;;;;;;2.40;99.90;;;;;;5140916;27;19920;-80
2021/01/05 06:25:54;;;;;;;;;;;2.50;99.90;;;;;;5106425;28;19920;-83
2021/01/05 06:28:23;;;;;;;;;;;2.50;99.90;;;;;;5098950;28;19931;-81
2021/01/05 06:30:51;;;;;;;;;;;2.40;99.90;;;;;;5082913;28;19920;-85
2021/01/05 06:33:23;;;;;;;;;;;2.50;99.90;;;;;;5103227;28;19920;-84
2021/01/05 06:35:50;;;;;;;;;;;2.40;99.90;;;;;;5085376;28;20254;-81
2021/01/05 06:38:18;;;;;;;;;;;2.40;99.90;;;;;;5104267;28;19931;-84
2021/01/05 06:40:46;;;;;;;;;;;2.50;99.90;;;;;;5081535;28;19931;-80
2021/01/05 06:43:14;;;;;;;;;;;2.50;99.90;;;;;;5104500;28;19924;-84
2021/01/05 06:45:41;;;;;;;;;;;2.40;99.90;;;;;;5115262;28;19931;-89
2021/01/05 06:48:13;;;;;;;;;;;2.40;99.90;;;;;;5101477;28;19920;-84
2021/01/05 06:50:43;;;;;;;;;;;2.40;99.90;;;;;;5099631;28;19938;-83
2021/01/05 06:53:10;;;;;;;;;;;2.30;99.90;;;;;;5120816;28;19920;-83
2021/01/05 06:55:37;;;;;;;;;;;2.20;99.90;;;;;;5110518;28;19920;-83
2021/01/05 06:58:04;;;;;;;;;;;2.30;99.90;;;;;;5105164;28;19927;-80
2021/01/05 07:00:31;;;;;;;;;;;2.40;99.90;;;;;;5088933;28;19920;-83
2021/01/05 07:02:59;;;;;;;;;;;2.40;99.90;;;;;;5104646;28;19920;-85
2021/01/05 07:05:29;;;;;;;;;;;2.40;99.90;;;;;;5095757;28;19920;-81
2021/01/05 07:07:57;;;;;;;;;;;2.40;99.90;;;;;;5095395;28;19928;-86
2021/01/05 07:10:27;;;;;;;;;;;2.40;99.90;;;;;;5072917;28;20261;-84
2021/01/05 07:12:54;;;;;;;;;;;2.40;99.90;;;;;;5105352;28;19934;-81
2021/01/05 07:15:21;;;;;;;;;;;2.50;99.90;;;;;;5089657;28;19931;-81
2021/01/05 07:17:50;;;;;;;;;;;2.40;99.90;;;;;;5089733;28;20476;-83
2021/01/05 07:20:19;;;;;;;;;;;2.40;99.90;;;;;;5085472;28;19920;-82
2021/01/05 07:22:49;;;;;;;;;;;2.40;99.90;;;;;;5125081;28;19920;-82
2021/01/05 07:25:19;;;;;;;;;;;2.40;99.90;;;;;;5111020;28;19931;-81
2021/01/05 07:27:46;;;;;;;;;;;2.40;99.90;;;;;;5104506;28;19924;-82
2021/01/05 07:30:14;;;;;;;;;;;2.40;99.90;;;;;;5105009;28;19938;-79
2021/01/05 07:32:41;;;;;;;;;;;2.40;99.90;;;;;;5123111;28;19926;-81
2021/01/05 07:35:11;;;;;;;;;;;2.40;99.90;;;;;;5114971;28;19920;-81
2021/01/05 07:37:43;;;;;;;;;;;2.40;99.90;;;;;;5093187;28;19919;-78
2021/01/05 07:40:17;;;;;;;;;;;2.40;99.90;;;;;;5126651;28;19924;-80
2021/01/05 07:42:46;;;;;;;;;;;2.50;99.90;;;;;;5123142;28;19920;-82
2021/01/05 07:45:17;;;;;;;;;;;2.40;99.90;;;;;;5082998;28;19927;-81
2021/01/05 07:47:50;;;;;;;;;;;2.40;99.90;;;;;;5097923;28;19928;-82
2021/01/05 07:50:20;;;;;;;;;;;2.40;99.90;;;;;;5096989;28;19939;-80
2021/01/05 07:52:47;;;;;;;;;;;2.40;99.90;;;;;;5080151;28;19920;-81
2021/01/05 07:55:20;;;;;;;;;;;2.40;99.90;;;;;;5095002;28;20244;-82
2021/01/05 07:57:48;;;;;;;;;;;2.40;99.90;;;;;;5103427;28;19928;-80
2021/01/05 08:00:21;;;;;;;;;;;2.40;99.90;;;;;;5127574;28;19928;-79
2021/01/05 08:02:50;;;;;;;;;;;2.50;99.90;;;;;;5112268;28;19931;-81
2021/01/05 08:05:18;;;;;;;;;;;2.40;99.90;;;;;;5096444;28;20272;-78
2021/01/05 08:07:46;;;;;;;;;;;2.50;99.90;;;;;;5078249;28;20273;-81
2021/01/05 08:10:19;;;;;;;;;;;2.50;99.90;;;;;;5095222;28;19920;-79
2021/01/05 08:12:48;;;;;;;;;;;2.60;99.90;;;;;;5078607;28;19920;-84
2021/01/05 08:15:19;;;;;;;;;;;2.60;99.90;;;;;;5095227;28;19927;-79
2021/01/05 08:17:48;;;;;;;;;;;2.60;99.90;;;;;;5094478;28;20289;-81
2021/01/05 08:20:18;;;;;;;;;;;2.60;99.90;;;;;;5100315;28;19920;-81
2021/01/05 08:22:47;;;;;;;;;;;2.60;99.90;;;;;;5130841;28;19920;-85
2021/01/05 08:25:16;;;;;;;;;;;2.60;99.90;;;;;;5096125;28;19924;-79
2021/01/05 08:27:47;;;;;;;;;;;2.60;99.90;;;;;;5095351;28;20270;-79
2021/01/05 08:30:17;;;;;;;;;;;2.60;99.90;;;;;;5087129;28;20256;-77
2021/01/05 08:32:44;;;;;;;;;;;2.60;99.90;;;;;;5083916;28;19939;-79
2021/01/05 08:35:16;;;;;;;;;;;2.60;99.90;;;;;;5099221;28;19931;-80
2021/01/05 08:37:45;;;;;;;;;;;2.60;99.90;;;;;;5086255;28;19939;-77
2021/01/05 08:40:14;;;;;;;;;;;2.60;99.90;;;;;;5082915;28;19920;-78
2021/01/05 08:42:43;;;;;;;;;;;2.60;99.90;;;;;;5098939;28;19931;-79
2021/01/05 08:45:10;;;;;;;;;;;2.70;99.90;;;;;;5081574;28;19920;-79
2021/01/05 08:47:41;;;;;;;;;;;2.70;99.90;;;;;;5097418;28;19927;-78
2021/01/05 08:50:10;;;;;;;;;;;2.70;99.90;;;;;;5098516;28;20390;-79
2021/01/05 08:52:40;;;;;;;;;;;2.70;99.90;;;;;;5098944;28;19931;-80
2021/01/05 08:55:08;;;;;;;;;;;2.60;99.90;;;;;;5087894;28;19931;-78
2021/01/05 08:57:40;;;;;;;;;;;2.60;99.90;;;;;;5113309;28;19924;-82
2021/01/05 09:00:13;;;;;;;;;;;2.60;99.90;;;;;;5100532;28;19920;-80
2021/01/05 09:02:42;;;;;;;;;;;2.60;99.90;;;;;;5083832;28;19920;-79
2021/01/05 09:05:10;;;;;;;;;;;2.60;99.90;;;;;;5111097;28;19920;-81
2021/01/05 09:07:37;;;;;;;;;;;2.70;99.90;;;;;;5100307;28;19931;-78
2021/01/05 09:10:07;;;;;;;;;;;2.70;99.90;;;;;;5108972;28;19931;-80
2021/01/05 09:12:36;;;;;;;;;;;2.70;99.90;;;;;;5076124;28;19934;-81
2021/01/05 09:15:06;;;;;;;;;;;2.80;99.90;;;;;;5110224;28;19924;-82
2021/01/05 09:17:33;;;;;;;;;;;2.80;99.90;;;;;;5130228;28;19935;-81
2021/01/05 09:20:02;;;;;;;;;;;2.80;99.90;;;;;;5151489;27;19926;-81
2021/01/05 09:22:30;;;;;;;;;;;2.80;99.90;;;;;;5103362;28;19920;-82
2021/01/05 09:24:57;;;;;;;;;;;2.80;99.90;;;;;;5101138;28;19926;-81
2021/01/05 09:27:24;;;;;;;;;;;2.80;99.90;;;;;;5094983;28;19920;-81
2021/01/05 09:29:51;;;;;;;;;;;2.80;99.90;;;;;;5093585;28;20364;-83
2021/01/05 09:32:21;;;;;;;;;;;2.90;99.90;;;;;;5097339;28;19935;-81
2021/01/05 09:34:48;;;;;;;;;;;2.90;99.90;;;;;;5119728;28;19920;-81
2021/01/05 09:37:16;;;;;;;;;;;3.00;99.90;;;;;;5089101;28;19920;-82
2021/01/05 09:39:46;;;;;;;;;;;2.90;99.90;;;;;;5092512;28;19920;-82
2021/01/05 09:42:14;;;;;;;;;;;2.90;99.90;;;;;;5090768;28;19930;-81
2021/01/05 09:44:43;;;;;;;;;;;2.90;99.90;;;;;;5131817;22;19922;-82
2021/01/05 09:47:10;;;;;;;;;;;2.90;99.90;;;;;;5043603;28;19933;-81
2021/01/05 09:49:40;;;;;;;;;;;2.80;99.90;;;;;;5033591;28;19922;-82
2021/01/05 09:52:13;;;;;;;;;;;2.80;99.90;;;;;;5022593;28;19921;-82
2021/01/05 09:54:42;;;;;;;;;;;2.90;99.90;;;;;;5003588;28;19921;-80
2021/01/05 09:57:12;;;;;;;;;;;2.80;99.90;;;;;;5018552;28;19921;-80
2021/01/05 09:59:39;;;;;;;;;;;2.90;99.90;;;;;;5002616;28;20394;-79
2021/01/05 10:02:06;;;;;;;;;;;2.90;99.90;;;;;;5371249;22;19905;-79
2021/01/05 10:04:35;;;;;;;;;;;2.90;99.90;;;;;;5065566;28;19905;-79
2021/01/05 10:13:11;;;;;;;;;;;3.10;99.90;;;;;;5229022;23;19908;-79
2021/01/05 10:15:41;;;;;;;;;;;3.10;99.90;;;;;;4908051;29;19914;-80
2021/01/05 10:18:15;;;;;;;;;;;3.10;99.90;;;;;;4922702;23;19923;31
2021/01/05 10:26:37;;;;;;;;;;;3.20;99.90;;;;;;5824952;23;19930;-79
2021/01/05 10:35:26;;;;;;;;;;;3.30;99.90;;;;;;5751624;23;19921;-81
2021/01/05 10:37:55;;;;;;;;;;;3.20;99.90;;;;;;4852594;29;20002;-82
2021/01/05 10:40:23;;;;;;;;;;;3.40;99.90;;;;;;4861043;29;19924;-80
2021/01/05 10:43:00;;;;;;;;;;;3.40;99.90;;;;;;4876417;29;19931;-82
2021/01/05 10:45:29;;;;;;;;;;;3.50;99.90;;;;;;4855546;29;19924;-81
2021/01/05 10:47:57;;;;;;;;;;;3.50;99.90;;;;;;4856857;29;19932;-81
2021/01/05 10:50:26;;;;;;;;;;;3.40;99.90;;;;;;4848021;29;19930;-82
2021/01/05 10:52:53;;;;;;;;;;;3.50;99.90;;;;;;4845670;29;19924;-82
2021/01/05 10:55:21;;;;;;;;;;;3.40;99.90;;;;;;4854735;29;19935;-80
2021/01/05 10:57:49;;;;;;;;;;;3.30;99.90;;;;;;4874052;29;19924;-81
2021/01/05 11:00:20;;;;;;;;;;;3.30;99.90;;;;;;4869784;29;19934;-81
2021/01/05 11:02:53;;;;;;;;;;;3.30;99.90;;;;;;4853691;29;19931;-80
2021/01/05 11:05:31;;;;;;;;;;;3.20;99.90;;;;;;4871748;29;19924;-80
2021/01/05 11:08:01;;;;;;;;;;;3.30;99.90;;;;;;4849794;29;19924;-81
2021/01/05 11:10:28;;;;;;;;;;;3.30;99.90;;;;;;4871926;29;19928;-80
2021/01/05 11:12:56;;;;;;;;;;;3.30;99.90;;;;;;4852289;29;19924;-80
2021/01/05 11:15:23;;;;;;;;;;;3.20;99.90;;;;;;4844884;29;19924;-80
2021/01/05 11:17:50;;;;;;;;;;;3.20;99.90;;;;;;4861291;29;19931;-81
2021/01/05 11:20:19;;;;;;;;;;;3.20;99.90;;;;;;4856638;29;19925;-81
2021/01/05 11:22:50;;;;;;;;;;;3.30;99.90;;;;;;4846796;29;19924;-81
2021/01/05 11:25:18;;;;;;;;;;;3.20;99.90;;;;;;4876061;29;20015;-82
2021/01/05 11:27:45;;;;;;;;;;;3.20;99.90;;;;;;4863218;29;19924;-82
2021/01/05 11:30:17;;;;;;;;;;;3.20;99.90;;;;;;4839364;29;19936;-82
2021/01/05 11:32:44;;;;;;;;;;;3.10;99.90;;;;;;4864727;29;19935;-81
2021/01/05 11:35:12;;;;;;;;;;;3.10;99.90;;;;;;4849908;29;19935;-82
2021/01/05 11:37:39;;;;;;;;;;;3.10;99.90;;;;;;4853679;29;20385;-82
2021/01/05 11:40:10;;;;;;;;;;;3.20;99.90;;;;;;4843578;29;19939;-82
2021/01/05 11:42:37;;;;;;;;;;;3.10;99.90;;;;;;4842189;29;20267;-82
2021/01/05 11:45:07;;;;;;;;;;;3.10;99.90;;;;;;4837008;29;19924;-82
2021/01/05 11:47:34;;;;;;;;;;;3.00;99.90;;;;;;4840981;29;19931;-82
2021/01/05 11:50:03;;;;;;;;;;;3.00;99.90;;;;;;4857238;29;19943;-82
2021/01/05 11:52:33;;;;;;;;;;;3.10;99.90;;;;;;4859028;29;19924;-82
2021/01/05 11:55:00;;;;;;;;;;;3.00;99.90;;;;;;4840716;29;19934;-81
2021/01/05 11:57:28;;;;;;;;;;;3.00;99.90;;;;;;4843367;29;19927;-80
2021/01/05 11:59:55;;;;;;;;;;;2.90;99.90;;;;;;4845442;29;19924;-81
2021/01/05 12:02:23;;;;;;;;;;;2.90;99.90;;;;;;4841489;29;20286;-81
2021/01/05 12:04:50;;;;;;;;;;;2.90;99.90;;;;;;4847533;29;19935;-82
2021/01/05 12:07:17;;;;;;;;;;;3.00;99.90;;;;;;4843216;29;19925;-81
2021/01/05 12:09:46;;;;;;;;;;;3.00;99.90;;;;;;4845108;29;19924;-82
2021/01/05 12:12:16;;;;;;;;;;;2.90;99.90;;;;;;4840749;29;19935;-82
2021/01/05 12:14:46;;;;;;;;;;;2.90;99.90;;;;;;4843333;29;19924;-81
2021/01/05 12:17:14;;;;;;;;;;;2.90;99.90;;;;;;4857985;29;19935;-82
2021/01/05 12:19:43;;;;;;;;;;;2.90;99.90;;;;;;4849198;29;20366;-80
2021/01/05 12:22:13;;;;;;;;;;;2.90;99.90;;;;;;4863294;29;19924;-80
2021/01/05 12:24:44;;;;;;;;;;;3.00;99.90;;;;;;4845360;29;19935;-81
2021/01/05 12:27:13;;;;;;;;;;;3.00;99.90;;;;;;4845019;29;19935;-82
2021/01/05 12:29:41;;;;;;;;;;;3.00;99.90;;;;;;4855934;29;20274;-81
2021/01/05 12:32:13;;;;;;;;;;;3.10;99.90;;;;;;4846806;29;20255;-81
2021/01/05 12:34:44;;;;;;;;;;;3.10;99.90;;;;;;4853265;29;19924;-81
2021/01/05 12:37:12;;;;;;;;;;;3.00;99.90;;;;;;4854336;29;19924;-80
2021/01/05 12:39:42;;;;;;;;;;;3.10;99.90;;;;;;4866768;29;19935;-81
2021/01/05 12:42:16;;;;;;;;;;;3.00;99.90;;;;;;4864350;29;19931;-82
2021/01/05 12:44:44;;;;;;;;;;;3.00;99.90;;;;;;4851936;29;19924;-81
2021/01/05 12:47:13;;;;;;;;;;;3.00;99.90;;;;;;4848770;29;20303;-81
2021/01/05 12:49:40;;;;;;;;;;;3.00;99.90;;;;;;4855237;29;19924;-82
2021/01/05 12:52:12;;;;;;;;;;;3.00;99.90;;;;;;4856770;29;19924;-81
2021/01/05 12:54:40;;;;;;;;;;;3.00;99.90;;;;;;4845179;29;19924;-81
2021/01/05 12:57:07;;;;;;;;;;;2.90;99.90;;;;;;4844865;29;19928;-81
2021/01/05 12:59:35;;;;;;;;;;;2.80;99.90;;;;;;4861360;29;19924;-81
2021/01/05 13:02:03;;;;;;;;;;;2.80;99.90;;;;;;4864966;29;19934;-81
2021/01/05 13:04:31;;;;;;;;;;;2.80;99.90;;;;;;4836775;29;20301;-81
2021/01/05 13:06:59;;;;;;;;;;;2.80;99.90;;;;;;4843772;29;19924;-81
2021/01/05 13:09:29;;;;;;;;;;;2.80;99.90;;;;;;4851248;29;19928;-81
2021/01/05 13:11:56;;;;;;;;;;;2.80;99.90;;;;;;4865275;29;19924;-81
2021/01/05 13:14:24;;;;;;;;;;;2.70;99.90;;;;;;4868621;29;19924;-81
2021/01/05 13:16:53;;;;;;;;;;;2.70;99.90;;;;;;4863792;29;19924;-81
2021/01/05 13:19:21;;;;;;;;;;;2.70;99.90;;;;;;4871000;29;19935;-81
2021/01/05 13:21:50;;;;;;;;;;;2.80;99.90;;;;;;4867975;29;19932;-82
2021/01/05 13:24:20;;;;;;;;;;;2.70;99.90;;;;;;4868258;29;19924;-80
2021/01/05 13:26:48;;;;;;;;;;;2.70;99.90;;;;;;4857363;29;19938;-81
2021/01/05 13:29:17;;;;;;;;;;;2.70;99.90;;;;;;4872222;29;19924;-81
2021/01/05 13:31:46;;;;;;;;;;;2.70;99.90;;;;;;4848384;29;19924;-82
2021/01/05 13:34:17;;;;;;;;;;;2.60;99.90;;;;;;4847729;29;19924;-81
2021/01/05 13:36:44;;;;;;;;;;;2.70;99.90;;;;;;4858408;29;19924;-82
2021/01/05 13:39:16;;;;;;;;;;;2.70;99.90;;;;;;4868966;29;19947;-82
2021/01/05 13:41:47;;;;;;;;;;;2.80;99.90;;;;;;4854971;29;20251;-80
2021/01/05 13:44:14;;;;;;;;;;;2.70;99.90;;;;;;4854363;29;19935;-81
2021/01/05 13:46:44;;;;;;;;;;;2.80;99.90;;;;;;4836460;29;19924;-81
2021/01/05 13:49:18;;;;;;;;;;;2.70;99.90;;;;;;4852497;29;19935;-81
2021/01/05 13:51:45;;;;;;;;;;;2.70;99.90;;;;;;4829000;29;19924;-81
2021/01/05 13:54:16;;;;;;;;;;;2.70;99.90;;;;;;4857933;29;19930;-80
2021/01/05 13:56:43;;;;;;;;;;;2.70;99.90;;;;;;4862333;29;19924;-80
2021/01/05 13:59:11;;;;;;;;;;;2.70;99.90;;;;;;4868787;29;19924;-83
2021/01/05 14:01:38;;;;;;;;;;;2.70;99.90;;;;;;4862460;29;19928;-82
2021/01/05 14:04:06;;;;;;;;;;;2.70;99.90;;;;;;4852881;29;19912;-82
2021/01/05 14:06:34;;;;;;;;;;;2.70;99.90;;;;;;4851802;29;19943;-82
2021/01/05 14:09:04;;;;;;;;;;;2.60;99.90;;;;;;4873506;29;19932;-82
2021/01/05 14:11:32;;;;;;;;;;;2.60;99.90;;;;;;4866050;29;19924;-82
2021/01/05 14:14:02;;;;;;;;;;;2.60;99.90;;;;;;4852628;29;19924;-82
2021/01/05 14:16:31;;;;;;;;;;;2.70;99.90;;;;;;4866023;29;19925;-82
2021/01/05 14:18:58;;;;;;;;;;;2.60;99.90;;;;;;4871568;29;19924;-81
2021/01/05 14:21:27;;;;;;;;;;;2.60;99.90;;;;;;4854604;29;19973;-82
2021/01/05 14:23:56;;;;;;;;;;;2.60;99.90;;;;;;4865571;29;19934;-82
2021/01/05 14:26:24;;;;;;;;;;;2.60;99.90;;;;;;4867334;29;19945;-81
2021/01/05 14:28:53;;;;;;;;;;;2.80;99.90;;;;;;4832522;29;19943;-81
2021/01/05 14:31:21;;;;;;;;;;;2.70;99.90;;;;;;4864673;29;19924;-81
2021/01/05 14:33:49;;;;;;;;;;;2.70;99.90;;;;;;4844750;29;19924;-82
2021/01/05 14:36:17;;;;;;;;;;;2.70;99.90;;;;;;4826335;29;19924;-82
2021/01/05 14:38:44;;;;;;;;;;;2.70;99.90;;;;;;4850538;29;19935;-82
2021/01/05 14:41:11;;;;;;;;;;;2.70;99.90;;;;;;4848762;29;19939;-82
2021/01/05 14:43:38;;;;;;;;;;;2.60;99.90;;;;;;4844520;29;19924;-82
2021/01/05 14:46:09;;;;;;;;;;;2.60;99.90;;;;;;4870859;29;19924;-82
2021/01/05 14:48:44;;;;;;;;;;;2.60;99.90;;;;;;4861820;29;19916;-82
2021/01/05 14:51:15;;;;;;;;;;;2.60;99.90;;;;;;4850436;29;19924;-81
2021/01/05 14:53:42;;;;;;;;;;;2.40;99.90;;;;;;4869710;29;19930;-81
2021/01/05 14:56:18;;;;;;;;;;;2.60;99.90;;;;;;4862460;29;19920;-82
2021/01/05 14:58:46;;;;;;;;;;;2.60;99.90;;;;;;4871295;29;19928;-82
2021/01/05 15:01:17;;;;;;;;;;;2.60;99.90;;;;;;4842480;29;19935;-82
2021/01/05 15:03:51;;;;;;;;;;;2.60;99.90;;;;;;4841415;29;19924;-82
2021/01/05 15:06:19;;;;;;;;;;;2.60;99.90;;;;;;4847235;29;19928;-81
2021/01/05 15:08:46;;;;;;;;;;;2.50;99.90;;;;;;4853585;29;19924;-81
2021/01/05 15:11:17;;;;;;;;;;;2.50;99.90;;;;;;4856564;29;19935;-81
2021/01/05 15:13:45;;;;;;;;;;;2.50;99.90;;;;;;4858726;29;20017;-81
2021/01/05 15:16:12;;;;;;;;;;;2.50;99.90;;;;;;4862043;29;19924;-82
2021/01/05 15:18:41;;;;;;;;;;;2.40;99.90;;;;;;4876948;29;19924;-81
2021/01/05 15:21:10;;;;;;;;;;;2.50;99.90;;;;;;4876393;29;19934;-81